createdAt,value
2022-07-31T00:00:38.067Z,140.90
2022-07-31T00:03:06.635Z,141.33
2022-07-31T00:05:38.763Z,142.20
2022-07-31T00:08:10.327Z,137.40
2022-07-31T00:10:38.162Z,138.43
2022-07-31T00:13:07.483Z,141.17
2022-07-31T00:15:35.405Z,133.40
2022-07-31T00:18:03.213Z,139.07
2022-07-31T00:20:30.962Z,136.10
2022-07-31T00:22:58.753Z,137.57
2022-07-31T00:25:26.604Z,139.27
2022-07-31T00:27:54.686Z,139.10
2022-07-31T00:30:23.828Z,135.47
2022-07-31T00:32:52.148Z,135.93
2022-07-31T00:35:20.581Z,129.97
2022-07-31T00:37:48.503Z,130.20
2022-07-31T00:40:17.959Z,120.50
2022-07-31T00:42:46.235Z,125.87
2022-07-31T00:45:14.090Z,126.03
2022-07-31T00:47:43.552Z,133.03
2022-07-31T00:50:12.396Z,128.93
2022-07-31T00:52:40.170Z,135.63
2022-07-31T00:55:09.029Z,132.23
2022-07-31T00:57:37.118Z,130.97
2022-07-31T01:00:06.548Z,136.80
2022-07-31T01:02:34.277Z,130.13
2022-07-31T01:05:03.363Z,137.87
2022-07-31T01:07:31.402Z,133.07
2022-07-31T01:10:01.065Z,131.40
2022-07-31T01:12:36.788Z,131.93
2022-07-31T01:15:08.570Z,134.03
2022-07-31T01:17:39.485Z,142.20
2022-07-31T01:20:12.029Z,134.17
2022-07-31T01:23:14.638Z,133.27
2022-07-31T01:25:57.351Z,134.63
2022-07-31T01:28:34.103Z,133.77
2022-07-31T01:31:26.086Z,132.93
2022-07-31T01:34:00.516Z,123.50
2022-07-31T01:36:34.726Z,131.93
2022-07-31T01:39:03.330Z,132.60
2022-07-31T01:41:35.217Z,128.53
2022-07-31T01:44:06.153Z,131.10
2022-07-31T01:46:41.514Z,132.30
2022-07-31T01:49:10.734Z,140.03
2022-07-31T01:51:39.939Z,133.17
2022-07-31T01:54:08.266Z,127.60
2022-07-31T01:56:37.329Z,126.47
2022-07-31T01:59:05.628Z,133.57
2022-07-31T02:01:50.856Z,122.70
2022-07-31T02:04:20.776Z,133.73
2022-07-31T02:06:49.807Z,136.60
2022-07-31T02:09:20.221Z,138.50
2022-07-31T02:11:53.301Z,132.23
2022-07-31T02:14:23.695Z,135.03
2022-07-31T02:16:53.043Z,131.83
2022-07-31T02:19:22.288Z,133.27
2022-07-31T02:21:52.357Z,138.60
2022-07-31T02:24:20.184Z,123.70
2022-07-31T02:26:48.762Z,128.03
2022-07-31T02:29:20.311Z,127.43
2022-07-31T02:32:03.215Z,120.80
2022-07-31T02:34:35.316Z,122.07
2022-07-31T02:37:04.041Z,131.80
2022-07-31T02:39:35.276Z,131.87
2022-07-31T02:42:04.318Z,127.47
2022-07-31T02:44:34.644Z,141.03
2022-07-31T02:47:05.181Z,138.67
2022-07-31T02:49:35.196Z,126.20
2022-07-31T02:52:04.893Z,135.90
2022-07-31T02:54:35.136Z,130.27
2022-07-31T02:57:04.039Z,132.50
2022-07-31T02:59:32.055Z,130.43
2022-07-31T03:02:00.034Z,120.87
2022-07-31T03:04:27.804Z,116.20
2022-07-31T03:06:56.914Z,117.57
2022-07-31T03:09:24.739Z,117.17
2022-07-31T03:11:52.598Z,118.57
2022-07-31T03:14:22.094Z,115.60
2022-07-31T03:16:50.937Z,115.70
2022-07-31T03:19:20.665Z,116.37
2022-07-31T03:21:51.320Z,116.17
2022-07-31T03:24:20.863Z,117.77
2022-07-31T03:26:48.740Z,119.00
2022-07-31T03:29:39.191Z,119.23
2022-07-31T03:32:04.688Z,120.33
2022-07-31T03:34:32.691Z,121.23
2022-07-31T03:37:00.496Z,119.77
2022-07-31T03:39:29.580Z,119.37
2022-07-31T03:41:58.434Z,116.87
2022-07-31T03:44:27.532Z,118.80
2022-07-31T03:46:55.654Z,116.87
2022-07-31T03:49:24.855Z,121.20
2022-07-31T03:51:52.780Z,119.00
2022-07-31T03:54:20.826Z,161.37
2022-07-31T03:56:52.103Z,120.63
2022-07-31T03:59:21.642Z,136.57
2022-07-31T04:01:57.388Z,117.43
2022-07-31T04:04:26.507Z,116.77
2022-07-31T04:06:54.468Z,114.27
2022-07-31T04:09:22.220Z,112.57
2022-07-31T04:11:51.306Z,114.40
2022-07-31T04:14:19.070Z,116.97
2022-07-31T04:16:46.856Z,115.23
2022-07-31T04:19:14.623Z,114.07
2022-07-31T04:21:42.392Z,114.17
2022-07-31T04:24:11.527Z,117.20
2022-07-31T04:26:39.319Z,121.20
2022-07-31T04:29:08.388Z,114.70
2022-07-31T04:31:36.151Z,115.20
2022-07-31T04:34:04.933Z,117.97
2022-07-31T04:36:33.381Z,115.30
2022-07-31T04:39:01.813Z,115.77
2022-07-31T04:41:29.689Z,116.57
2022-07-31T04:43:59.498Z,118.27
2022-07-31T04:46:28.694Z,118.27
2022-07-31T04:48:56.496Z,116.53
2022-07-31T04:51:25.294Z,123.57
2022-07-31T04:53:53.095Z,122.40
2022-07-31T04:56:37.566Z,152.43
2022-07-31T04:59:07.553Z,121.23
2022-07-31T05:01:37.014Z,116.70
2022-07-31T05:04:05.703Z,119.50
2022-07-31T05:06:35.567Z,122.97
2022-07-31T05:09:08.560Z,116.80
2022-07-31T05:11:38.305Z,119.90
2022-07-31T05:14:07.939Z,126.87
2022-07-31T05:16:37.875Z,128.57
2022-07-31T05:19:13.695Z,120.80
2022-07-31T05:21:47.062Z,141.30
2022-07-31T05:24:33.453Z,125.17
2022-07-31T05:27:02.263Z,126.30
2022-07-31T05:29:30.308Z,130.10
2022-07-31T05:32:01.163Z,13.70
2022-07-31T05:34:30.648Z,15.23
2022-07-31T05:36:58.680Z,15.53
2022-07-31T05:39:26.577Z,12.27
2022-07-31T05:41:54.342Z,13.77
2022-07-31T05:44:22.070Z,16.47
2022-07-31T05:49:18.003Z,14.80
2022-07-31T05:51:46.697Z,12.93
2022-07-31T05:54:14.695Z,13.43
2022-07-31T05:56:42.703Z,13.77
2022-07-31T05:59:10.622Z,13.33
2022-07-31T06:01:38.801Z,14.50
2022-07-31T06:04:06.635Z,13.40
2022-07-31T06:06:35.731Z,13.00
2022-07-31T06:09:04.694Z,14.27
2022-07-31T06:11:32.757Z,12.77
2022-07-31T06:14:00.550Z,12.03
2022-07-31T06:16:28.289Z,14.77
2022-07-31T06:18:56.106Z,12.73
2022-07-31T06:21:27.530Z,12.70
2022-07-31T06:23:59.278Z,12.53
2022-07-31T06:26:27.700Z,11.90
2022-07-31T06:28:55.669Z,12.90
2022-07-31T06:31:24.030Z,11.70
2022-07-31T06:33:52.619Z,13.33
2022-07-31T06:36:20.703Z,13.60
2022-07-31T06:38:48.536Z,13.83
2022-07-31T06:41:31.569Z,11.00
2022-07-31T06:43:59.340Z,12.73
2022-07-31T06:46:27.119Z,11.80
2022-07-31T06:48:54.977Z,11.63
2022-07-31T06:51:31.616Z,11.27
2022-07-31T06:54:00.457Z,18.83
2022-07-31T06:56:30.027Z,12.43
2022-07-31T06:58:57.949Z,12.33
2022-07-31T07:01:25.774Z,10.90
2022-07-31T07:03:53.912Z,10.33
2022-07-31T07:06:22.155Z,9.73
2022-07-31T07:08:50.266Z,11.37
2022-07-31T07:11:20.114Z,10.27
2022-07-31T07:13:49.450Z,10.83
2022-07-31T07:16:17.635Z,10.73
2022-07-31T07:18:45.574Z,11.03
2022-07-31T07:21:13.967Z,10.50
2022-07-31T07:23:41.863Z,9.70
2022-07-31T07:26:09.812Z,10.23
2022-07-31T07:28:37.875Z,11.40
2022-07-31T07:31:07.282Z,11.03
2022-07-31T07:33:39.850Z,9.10
2022-07-31T07:36:23.666Z,10.63
2022-07-31T07:38:54.845Z,11.00
2022-07-31T07:41:23.370Z,10.13
2022-07-31T07:43:52.544Z,8.80
2022-07-31T07:46:22.459Z,11.67
2022-07-31T07:48:51.597Z,9.33
2022-07-31T07:51:20.298Z,10.30
2022-07-31T07:53:48.186Z,8.83
2022-07-31T07:56:15.960Z,12.03
2022-07-31T07:58:43.821Z,12.90
2022-07-31T08:01:11.782Z,9.13
2022-07-31T08:03:50.700Z,9.83
2022-07-31T08:06:20.042Z,12.17
2022-07-31T08:08:47.969Z,10.17
2022-07-31T08:11:17.082Z,9.60
2022-07-31T08:13:50.088Z,15.10
2022-07-31T08:16:19.508Z,10.83
2022-07-31T08:18:49.192Z,10.40
2022-07-31T08:21:17.081Z,12.10
2022-07-31T08:23:44.881Z,9.00
2022-07-31T08:26:13.932Z,10.97
2022-07-31T08:28:49.704Z,12.30
2022-07-31T08:31:19.269Z,9.27
2022-07-31T08:33:48.461Z,10.00
2022-07-31T08:36:16.353Z,11.80
2022-07-31T08:38:44.250Z,13.33
2022-07-31T08:41:14.870Z,8.43
2022-07-31T08:44:01.607Z,12.67
2022-07-31T08:46:33.293Z,9.13
2022-07-31T08:49:03.930Z,12.30
2022-07-31T08:51:51.524Z,9.27
2022-07-31T08:54:21.561Z,8.23
2022-07-31T08:56:52.367Z,10.50
2022-07-31T08:59:20.792Z,10.20
2022-07-31T09:01:48.645Z,8.20
2022-07-31T09:04:17.812Z,9.00
2022-07-31T09:06:45.732Z,11.00
2022-07-31T09:09:13.770Z,9.17
2022-07-31T09:11:48.094Z,8.70
2022-07-31T09:14:25.106Z,11.00
2022-07-31T09:16:54.537Z,11.20
2022-07-31T09:19:52.928Z,7.70
2022-07-31T09:22:21.564Z,7.30
2022-07-31T09:24:49.496Z,13.00
2022-07-31T09:27:18.030Z,12.00
2022-07-31T09:29:49.034Z,6.90
2022-07-31T09:32:18.675Z,6.83
2022-07-31T09:34:49.254Z,6.20
2022-07-31T09:37:18.515Z,7.30
2022-07-31T09:39:52.423Z,6.80
2022-07-31T09:42:21.226Z,7.00
2022-07-31T09:44:50.816Z,7.50
2022-07-31T09:47:23.022Z,7.03
2022-07-31T09:49:58.180Z,7.13
2022-07-31T09:52:27.680Z,6.23
2022-07-31T09:55:03.213Z,7.33
2022-07-31T09:57:53.426Z,6.60
2022-07-31T10:00:23.263Z,7.10
2022-07-31T10:02:52.297Z,8.20
2022-07-31T10:05:23.018Z,6.30
2022-07-31T10:07:52.322Z,8.00
2022-07-31T10:10:22.796Z,7.67
2022-07-31T10:12:53.671Z,7.33
2022-07-31T10:15:22.413Z,7.10
2022-07-31T10:17:52.543Z,6.20
2022-07-31T10:20:24.531Z,7.43
2022-07-31T10:22:57.134Z,7.03
2022-07-31T10:25:28.322Z,7.00
2022-07-31T10:27:57.699Z,7.70
2022-07-31T10:30:28.407Z,6.37
2022-07-31T10:32:56.728Z,6.90
2022-07-31T10:35:26.591Z,9.47
2022-07-31T10:38:04.787Z,7.33
2022-07-31T10:40:41.008Z,7.97
2022-07-31T10:43:20.188Z,6.63
2022-07-31T10:45:50.146Z,6.40
2022-07-31T10:48:18.373Z,5.97
2022-07-31T10:50:48.570Z,6.20
2022-07-31T10:53:18.597Z,7.10
2022-07-31T10:55:46.587Z,7.17
2022-07-31T10:58:16.632Z,6.90
2022-07-31T11:00:45.269Z,7.40
2022-07-31T11:03:15.287Z,11.13
2022-07-31T11:06:02.461Z,8.47
2022-07-31T11:08:42.097Z,7.00
2022-07-31T11:11:12.854Z,6.93
2022-07-31T11:13:48.347Z,5.97
2022-07-31T11:16:16.763Z,6.87
2022-07-31T11:18:46.482Z,6.60
2022-07-31T11:21:37.754Z,8.00
2022-07-31T11:24:13.417Z,8.30
2022-07-31T11:26:43.932Z,7.70
2022-07-31T11:29:59.153Z,5.80
2022-07-31T11:32:02.071Z,8.80
2022-07-31T11:34:29.831Z,6.73
2022-07-31T11:36:59.202Z,5.90
2022-07-31T11:39:37.019Z,11.07
2022-07-31T11:42:07.540Z,6.37
2022-07-31T11:44:36.248Z,6.13
2022-07-31T11:47:27.610Z,7.30
2022-07-31T11:50:01.822Z,6.53
2022-07-31T11:52:36.648Z,7.50
2022-07-31T11:55:09.139Z,6.13
2022-07-31T11:57:51.835Z,9.20
2022-07-31T12:00:29.012Z,6.80
2022-07-31T12:02:57.719Z,6.87
2022-07-31T12:05:38.301Z,8.60
2022-07-31T12:08:09.194Z,8.83
2022-07-31T12:10:37.274Z,8.10
2022-07-31T12:13:05.030Z,7.40
2022-07-31T12:15:32.820Z,6.20
2022-07-31T12:18:04.800Z,9.00
2022-07-31T12:20:36.474Z,6.10
2022-07-31T12:23:06.738Z,9.13
2022-07-31T12:25:43.321Z,7.40
2022-07-31T12:28:13.789Z,6.20
2022-07-31T12:30:42.081Z,6.30
2022-07-31T12:33:11.538Z,7.73
2022-07-31T12:35:56.010Z,6.30
2022-07-31T12:38:48.036Z,6.57
2022-07-31T12:41:15.237Z,6.50
2022-07-31T12:43:51.283Z,7.43
2022-07-31T12:46:21.485Z,7.00
2022-07-31T12:48:49.647Z,7.50
2022-07-31T12:51:44.280Z,6.70
2022-07-31T12:54:08.362Z,7.00
2022-07-31T12:56:38.341Z,6.83
2022-07-31T12:59:07.347Z,6.47
2022-07-31T13:01:36.691Z,7.00
2022-07-31T13:04:07.811Z,7.20
2022-07-31T13:06:37.419Z,6.00
2022-07-31T13:09:05.638Z,7.80
2022-07-31T13:11:46.729Z,7.03
2022-07-31T13:14:17.989Z,13.00
2022-07-31T13:16:46.027Z,7.30
2022-07-31T13:19:14.542Z,8.43
2022-07-31T13:21:49.392Z,9.00
2022-07-31T13:24:18.760Z,9.63
2022-07-31T13:26:46.677Z,8.03
2022-07-31T13:29:14.706Z,7.50
2022-07-31T13:31:44.144Z,7.10
2022-07-31T13:34:11.927Z,9.13
2022-07-31T13:36:40.181Z,6.63
2022-07-31T13:39:08.164Z,8.00
2022-07-31T13:41:36.013Z,7.33
2022-07-31T13:44:06.733Z,9.30
2022-07-31T13:46:34.639Z,8.37
2022-07-31T13:49:08.349Z,8.80
2022-07-31T13:51:36.719Z,7.07
2022-07-31T13:54:04.648Z,9.27
2022-07-31T13:56:34.007Z,7.20
2022-07-31T13:59:11.352Z,8.60
2022-07-31T14:02:02.740Z,8.50
2022-07-31T14:04:31.275Z,8.33
2022-07-31T14:07:00.757Z,7.27
2022-07-31T14:09:28.702Z,7.47
2022-07-31T14:11:56.848Z,9.40
2022-07-31T14:14:24.657Z,7.97
2022-07-31T14:16:52.416Z,8.47
2022-07-31T14:19:20.926Z,8.43
2022-07-31T14:21:56.952Z,7.70
2022-07-31T14:24:25.759Z,8.00
2022-07-31T14:26:54.145Z,9.50
2022-07-31T14:29:21.908Z,8.90
2022-07-31T14:31:49.790Z,7.47
2022-07-31T14:34:17.541Z,9.07
2022-07-31T14:36:45.292Z,9.33
2022-07-31T14:39:14.483Z,8.47
2022-07-31T14:41:42.376Z,8.47
2022-07-31T14:44:10.139Z,16.63
2022-07-31T14:46:37.930Z,7.73
2022-07-31T14:49:05.902Z,7.40
2022-07-31T14:51:33.688Z,7.50
2022-07-31T14:54:01.556Z,7.70
2022-07-31T14:56:58.397Z,7.10
2022-07-31T14:59:19.481Z,7.90
2022-07-31T15:01:47.347Z,8.23
2022-07-31T15:04:15.095Z,8.83
2022-07-31T15:07:07.302Z,7.17
2022-07-31T15:09:33.893Z,9.40
2022-07-31T15:12:03.504Z,8.67
2022-07-31T15:14:31.564Z,7.03
2022-07-31T15:16:59.468Z,7.93
2022-07-31T15:19:27.365Z,7.23
2022-07-31T15:22:10.325Z,7.47
2022-07-31T15:24:48.227Z,7.80
2022-07-31T15:27:19.158Z,7.20
2022-07-31T15:30:00.593Z,7.33
2022-07-31T15:32:34.314Z,7.70
2022-07-31T15:35:02.161Z,8.93
2022-07-31T15:37:30.143Z,7.67
2022-07-31T15:40:04.011Z,8.83
2022-07-31T15:42:33.535Z,9.70
2022-07-31T15:45:01.607Z,8.33
2022-07-31T15:47:29.607Z,8.90
2022-07-31T15:49:57.455Z,8.93
2022-07-31T15:52:25.269Z,7.93
2022-07-31T15:54:53.328Z,7.77
2022-07-31T15:57:21.697Z,11.90
2022-07-31T15:59:51.493Z,14.37
2022-07-31T16:02:19.461Z,9.37
2022-07-31T16:04:52.709Z,8.70
2022-07-31T16:08:32.588Z,8.63
2022-07-31T16:10:16.652Z,6.93
2022-07-31T16:12:45.744Z,15.43
2022-07-31T16:15:16.496Z,8.10
2022-07-31T16:17:45.185Z,7.73
2022-07-31T16:20:25.544Z,9.83
2022-07-31T16:22:56.840Z,8.87
2022-07-31T16:25:25.733Z,9.40
2022-07-31T16:27:53.621Z,10.73
2022-07-31T16:30:23.479Z,9.53
2022-07-31T16:32:51.867Z,8.50
2022-07-31T16:35:19.867Z,8.40
2022-07-31T16:37:50.424Z,8.23
2022-07-31T16:40:28.752Z,9.10
2022-07-31T16:43:00.621Z,8.23
2022-07-31T16:45:30.693Z,8.07
2022-07-31T16:47:58.642Z,8.87
2022-07-31T16:50:27.283Z,8.27
2022-07-31T16:52:55.550Z,10.13
2022-07-31T16:55:59.764Z,7.57
2022-07-31T16:58:12.614Z,8.47
2022-07-31T17:00:42.592Z,7.37
2022-07-31T17:03:58.361Z,7.83
2022-07-31T17:05:58.657Z,10.50
2022-07-31T17:08:26.450Z,8.63
2022-07-31T17:10:54.940Z,9.30
2022-07-31T17:13:22.966Z,8.60
2022-07-31T17:15:52.158Z,9.47
2022-07-31T17:18:24.882Z,12.17
2022-07-31T17:20:53.029Z,9.50
2022-07-31T17:23:40.114Z,8.25
2022-07-31T17:26:21.568Z,7.07
2022-07-31T17:28:50.462Z,8.50
2022-07-31T17:31:19.810Z,7.37
2022-07-31T17:33:58.390Z,8.43
2022-07-31T17:36:27.876Z,10.93
2022-07-31T17:38:55.674Z,7.70
2022-07-31T17:41:25.098Z,7.20
2022-07-31T17:43:54.013Z,10.43
2022-07-31T17:46:34.388Z,8.33
2022-07-31T17:49:02.838Z,8.30
2022-07-31T17:51:30.746Z,11.60
2022-07-31T17:53:59.087Z,7.60
2022-07-31T17:56:27.965Z,9.30
2022-07-31T17:59:03.674Z,8.30
2022-07-31T18:01:33.539Z,8.63
2022-07-31T18:04:01.918Z,9.43
2022-07-31T18:06:29.954Z,9.60
2022-07-31T18:08:58.081Z,7.50
2022-07-31T18:11:26.271Z,8.17
2022-07-31T18:13:55.186Z,8.07
2022-07-31T18:16:24.631Z,7.80
2022-07-31T18:18:54.584Z,8.90
2022-07-31T18:21:22.591Z,8.33
2022-07-31T18:23:50.463Z,8.00
2022-07-31T18:26:18.215Z,6.87
2022-07-31T18:28:46.070Z,13.53
2022-07-31T18:31:32.584Z,6.93
2022-07-31T18:34:03.794Z,8.53
2022-07-31T18:36:31.819Z,6.90
2022-07-31T18:38:59.715Z,7.40
2022-07-31T18:41:27.664Z,7.37
2022-07-31T18:43:55.508Z,7.77
2022-07-31T18:46:24.699Z,8.70
2022-07-31T18:48:55.375Z,7.20
2022-07-31T18:51:25.778Z,7.50
2022-07-31T18:53:54.787Z,8.37
2022-07-31T18:56:23.927Z,6.90
2022-07-31T18:58:51.925Z,7.60
2022-07-31T19:01:19.807Z,7.47
2022-07-31T19:03:48.012Z,7.63
2022-07-31T19:06:15.918Z,8.90
2022-07-31T19:08:45.957Z,7.47
2022-07-31T19:11:13.808Z,6.93
2022-07-31T19:13:41.752Z,7.90
2022-07-31T19:16:09.686Z,9.10
2022-07-31T19:18:40.159Z,7.60
2022-07-31T19:21:23.168Z,8.03
2022-07-31T19:23:57.562Z,8.03
2022-07-31T19:26:25.679Z,11.70
2022-07-31T19:28:53.715Z,7.17
2022-07-31T19:31:21.927Z,7.80
2022-07-31T19:33:50.001Z,7.70
2022-07-31T19:36:23.547Z,7.30
2022-07-31T19:38:54.738Z,7.57
2022-07-31T19:41:26.585Z,8.07
2022-07-31T19:43:54.551Z,9.00
2022-07-31T19:46:25.361Z,8.80
2022-07-31T19:48:53.311Z,7.30
2022-07-31T19:51:21.228Z,9.43
2022-07-31T19:53:49.184Z,8.50
2022-07-31T19:56:20.961Z,7.80
2022-07-31T19:58:51.557Z,10.93
2022-07-31T20:01:20.998Z,12.97
2022-07-31T20:03:49.209Z,7.60
2022-07-31T20:06:17.168Z,8.20
2022-07-31T20:08:44.923Z,9.17
2022-07-31T20:11:13.458Z,8.03
2022-07-31T20:13:41.355Z,12.40
2022-07-31T20:16:10.852Z,9.53
2022-07-31T20:18:38.667Z,9.27
2022-07-31T20:21:08.400Z,7.70
2022-07-31T20:23:38.135Z,9.63
2022-07-31T20:26:07.185Z,8.57
2022-07-31T20:28:34.940Z,8.60
2022-07-31T20:31:03.008Z,7.27
2022-07-31T20:33:32.334Z,7.50
2022-07-31T20:36:00.229Z,6.63
2022-07-31T20:38:28.274Z,8.33
2022-07-31T20:40:56.299Z,7.23
2022-07-31T20:43:25.512Z,8.37
2022-07-31T20:45:54.504Z,7.47
2022-07-31T20:48:24.327Z,7.43
2022-07-31T20:50:54.132Z,7.77
2022-07-31T20:53:22.968Z,8.57
2022-07-31T20:55:50.965Z,7.60
2022-07-31T20:58:18.804Z,7.60
2022-07-31T21:00:47.424Z,7.30
2022-07-31T21:03:15.560Z,7.27
2022-07-31T21:05:43.646Z,8.87
2022-07-31T21:08:12.874Z,8.20
2022-07-31T21:10:41.097Z,8.10
2022-07-31T21:13:09.968Z,8.13
2022-07-31T21:15:42.835Z,8.23
2022-07-31T21:18:13.115Z,7.93
2022-07-31T21:20:51.709Z,8.13
2022-07-31T21:23:23.361Z,8.40
2022-07-31T21:25:52.239Z,8.90
2022-07-31T21:28:20.693Z,9.90
2022-07-31T21:30:49.126Z,9.10
2022-07-31T21:33:18.886Z,9.60
2022-07-31T21:35:46.990Z,8.87
2022-07-31T21:38:16.019Z,8.40
2022-07-31T21:40:45.738Z,10.50
2022-07-31T21:43:16.571Z,11.73
2022-07-31T21:45:55.658Z,10.00
2022-07-31T21:48:27.031Z,9.73
2022-07-31T21:50:55.701Z,11.03
2022-07-31T21:53:24.234Z,11.27
2022-07-31T21:55:53.363Z,11.77
2022-07-31T21:58:21.286Z,9.30
2022-07-31T22:00:49.081Z,11.80
2022-07-31T22:03:16.848Z,9.00
2022-07-31T22:06:02.014Z,11.20
2022-07-31T22:08:29.728Z,8.90
2022-07-31T22:10:58.805Z,14.43
2022-07-31T22:13:26.647Z,13.10
2022-07-31T22:16:00.265Z,9.23
2022-07-31T22:18:29.704Z,9.47
2022-07-31T22:20:57.807Z,10.90
2022-07-31T22:23:26.089Z,9.77
2022-07-31T22:25:54.437Z,10.53
2022-07-31T22:28:24.961Z,10.93
2022-07-31T22:30:53.088Z,12.13
2022-07-31T22:33:21.946Z,9.60
2022-07-31T22:35:59.987Z,10.00
2022-07-31T22:38:29.570Z,10.50
2022-07-31T22:40:57.779Z,11.13
2022-07-31T22:44:10.795Z,9.33
2022-07-31T22:46:15.485Z,11.00
2022-07-31T22:48:45.171Z,8.80
2022-07-31T22:51:14.621Z,10.33
2022-07-31T22:53:43.479Z,9.43
2022-07-31T22:56:11.255Z,9.90
2022-07-31T22:58:40.356Z,9.23
2022-07-31T23:01:08.144Z,11.07
2022-07-31T23:03:35.894Z,10.60
2022-07-31T23:06:31.290Z,9.33
2022-07-31T23:08:55.001Z,9.60
2022-07-31T23:11:23.531Z,8.27
2022-07-31T23:13:52.679Z,10.20
2022-07-31T23:16:21.242Z,15.20
2022-07-31T23:18:49.344Z,8.87
2022-07-31T23:21:17.130Z,9.80
2022-07-31T23:23:48.592Z,9.40
2022-07-31T23:26:17.622Z,8.80
2022-07-31T23:28:45.502Z,9.30
2022-07-31T23:31:14.622Z,9.30
2022-07-31T23:33:42.630Z,9.93
2022-07-31T23:36:10.405Z,9.50
2022-07-31T23:38:38.438Z,13.40
2022-07-31T23:41:06.292Z,9.83
2022-07-31T23:43:33.203Z,8.93
2022-07-31T23:46:01.035Z,9.27
2022-07-31T23:48:30.566Z,8.70
2022-07-31T23:50:58.814Z,9.57
2022-07-31T23:53:26.662Z,9.57
2022-07-31T23:55:54.446Z,10.30
2022-07-31T23:58:22.353Z,8.80
